Time;durP1;ratioP1;P1;durP2;ratioP2;P2;SDS_P1;SDS_P2;PMS_P1;PMS_P2;Temp;Humidity;BMP_temperature;BMP_pressure;BME280_temperature;BME280_humidity;BME280_pressure;Samples;Min_cycle;Max_cycle;Signal;HPM_P1;HPM_P2
2023/03/23 00:01:19;;;;;;;37.20;19.30;;;;;;;;;;4959408;28;20047;-65
2023/03/23 00:03:46;;;;;;;48.88;22.75;;;;;;;;;;4940395;28;20111;-65
2023/03/23 00:06:16;;;;;;;41.10;20.42;;;;;;;;;;4958939;28;20478;-65
2023/03/23 00:08:50;;;;;;;39.70;19.50;;;;;;;;;;4958799;28;20039;-65
2023/03/23 00:11:16;;;;;;;;;;;;;;;;;;4958749;28;20043;-65
2023/03/23 00:13:43;;;;;;;32.45;17.02;;;;;;;;;;4957466;28;19937;-65
2023/03/23 00:16:17;;;;;;;32.40;16.90;;;;;;;;;;4939341;28;20093;-66
2023/03/23 00:18:45;;;;;;;36.65;17.08;;;;;;;;;;4956719;28;20136;-65
2023/03/23 00:21:11;;;;;;;31.70;17.17;;;;;;;;;;4958331;28;20047;-65
2023/03/23 00:23:39;;;;;;;38.20;19.35;;;;;;;;;;4958106;28;20046;-66
2023/03/23 00:26:05;;;;;;;38.97;20.52;;;;;;;;;;4939646;28;20141;-66
2023/03/23 00:28:31;;;;;;;46.72;25.80;;;;;;;;;;4958597;28;20370;-66
2023/03/23 00:30:58;;;;;;;67.50;35.63;;;;;;;;;;4941364;28;20336;-66
2023/03/23 00:33:26;;;;;;;70.07;38.20;;;;;;;;;;4938172;28;20076;-66
2023/03/23 00:35:54;;;;;;;76.47;39.97;;;;;;;;;;4937749;28;20039;-65
2023/03/23 00:38:21;;;;;;;62.47;39.95;;;;;;;;;;4936286;28;20055;-66
2023/03/23 00:40:47;;;;;;;63.03;39.70;;;;;;;;;;4919912;28;20136;-66
2023/03/23 00:43:16;;;;;;;64.60;38.25;;;;;;;;;;4938286;28;20058;-65
2023/03/23 00:45:44;;;;;;;64.38;38.25;;;;;;;;;;4932053;28;20078;-65
2023/03/23 00:48:12;;;;;;;60.55;36.88;;;;;;;;;;4922919;29;20051;-66
2023/03/23 00:50:39;;;;;;;56.58;33.15;;;;;;;;;;4920388;29;20529;-66
2023/03/23 00:53:05;;;;;;;42.90;25.92;;;;;;;;;;4924849;28;20106;-65
2023/03/23 00:55:33;;;;;;;37.78;24.33;;;;;;;;;;4937530;28;20158;-66
2023/03/23 00:57:59;;;;;;;35.70;21.05;;;;;;;;;;4937483;28;20050;-65
2023/03/23 01:00:26;;;;;;;25.65;16.77;;;;;;;;;;4921169;28;20133;-66
2023/03/23 01:02:54;;;;;;;22.58;14.85;;;;;;;;;;4921260;28;20062;-66
2023/03/23 01:05:20;;;;;;;22.15;14.57;;;;;;;;;;4937814;28;20057;-65
2023/03/23 01:07:46;;;;;;;21.90;14.13;;;;;;;;;;4936568;28;20055;-66
2023/03/23 01:10:15;;;;;;;21.88;14.98;;;;;;;;;;4936770;28;20398;-65
2023/03/23 01:12:44;;;;;;;23.73;14.88;;;;;;;;;;4937160;28;20130;-66
2023/03/23 01:15:14;;;;;;;25.20;15.20;;;;;;;;;;4921375;29;20055;-66
2023/03/23 01:17:41;;;;;;;22.95;16.05;;;;;;;;;;4919728;28;20360;-65
2023/03/23 01:20:07;;;;;;;28.75;16.02;;;;;;;;;;4937526;28;20432;-66
2023/03/23 01:22:33;;;;;;;27.00;17.73;;;;;;;;;;4940966;28;20047;-66
2023/03/23 01:24:59;;;;;;;30.20;17.77;;;;;;;;;;4922825;29;21924;-66
2023/03/23 01:27:26;;;;;;;38.55;18.90;;;;;;;;;;4921546;28;20054;-66
2023/03/23 01:29:52;;;;;;;27.40;18.70;;;;;;;;;;4944575;28;20038;-66
2023/03/23 01:32:18;;;;;;;30.45;18.50;;;;;;;;;;4960426;28;20064;-65
2023/03/23 01:34:44;;;;;;;28.70;18.73;;;;;;;;;;4961197;28;20138;-65
2023/03/23 01:37:10;;;;;;;31.40;19.20;;;;;;;;;;4961794;28;20042;-65
2023/03/23 01:39:37;;;;;;;36.35;17.90;;;;;;;;;;4957208;28;20110;-65
2023/03/23 01:42:03;;;;;;;32.33;19.33;;;;;;;;;;4960568;28;20098;-65
2023/03/23 01:44:30;;;;;;;29.23;18.42;;;;;;;;;;4959519;28;20046;-66
2023/03/23 01:46:57;;;;;;;31.17;18.27;;;;;;;;;;4941507;28;20074;-65
2023/03/23 01:49:32;;;;;;;27.92;16.85;;;;;;;;;;4940165;28;20082;-65
2023/03/23 01:52:02;;;;;;;26.42;16.90;;;;;;;;;;4940857;28;20051;-66
2023/03/23 01:54:29;;;;;;;22.17;14.20;;;;;;;;;;4958112;28;20437;-65
2023/03/23 01:56:59;;;;;;;26.98;14.18;;;;;;;;;;4936476;28;20050;-66
2023/03/23 01:59:27;;;;;;;19.95;13.43;;;;;;;;;;4940677;28;20066;-66
2023/03/23 02:01:55;;;;;;;23.63;14.32;;;;;;;;;;4959250;28;20058;-65
2023/03/23 02:04:22;;;;;;;23.40;13.27;;;;;;;;;;4940932;28;20046;-66
2023/03/23 02:06:48;;;;;;;20.83;11.38;;;;;;;;;;4957664;28;20335;-66
2023/03/23 02:09:17;;;;;;;23.75;12.70;;;;;;;;;;4958928;28;20051;-65
2023/03/23 02:11:43;;;;;;;15.60;10.20;;;;;;;;;;4940563;28;20121;-66
2023/03/23 02:14:09;;;;;;;19.70;9.90;;;;;;;;;;4958867;28;20078;-66
2023/03/23 02:16:42;;;;;;;18.83;9.75;;;;;;;;;;4954165;28;20070;-66
2023/03/23 02:19:32;;;;;;;16.42;9.00;;;;;;;;;;4955721;28;20043;-66
2023/03/23 02:22:07;;;;;;;13.85;8.02;;;;;;;;;;4955926;28;20051;-65
2023/03/23 02:24:42;;;;;;;16.50;8.02;;;;;;;;;;4955844;28;20330;-66
2023/03/23 02:27:13;;;;;;;17.92;8.55;;;;;;;;;;4952563;28;20050;-66
2023/03/23 02:29:49;;;;;;;20.55;7.22;;;;;;;;;;4954868;28;20058;-67
2023/03/23 02:32:21;;;;;;;16.30;7.93;;;;;;;;;;4957631;28;20074;-66
2023/03/23 02:34:54;;;;;;;13.15;7.10;;;;;;;;;;4957691;28;20043;-66
2023/03/23 02:37:23;;;;;;;14.05;6.97;;;;;;;;;;4958568;28;20039;-66
2023/03/23 02:39:58;;;;;;;18.52;7.25;;;;;;;;;;4956975;28;20070;-66
2023/03/23 02:42:27;;;;;;;17.65;7.28;;;;;;;;;;4956115;28;20499;-66
2023/03/23 02:44:54;;;;;;;16.02;6.72;;;;;;;;;;4958392;28;20138;-66
2023/03/23 02:47:23;;;;;;;15.45;6.35;;;;;;;;;;4944128;28;20045;-66
2023/03/23 02:49:51;;;;;;;16.20;6.63;;;;;;;;;;4959033;28;20077;-66
2023/03/23 02:52:19;;;;;;;14.77;6.80;;;;;;;;;;4941605;28;20043;-66
2023/03/23 02:54:46;;;;;;;14.27;6.07;;;;;;;;;;4960244;28;20118;-66
2023/03/23 02:57:12;;;;;;;12.98;6.10;;;;;;;;;;4952716;28;20057;-66
2023/03/23 02:59:40;;;;;;;13.10;5.93;;;;;;;;;;4959588;28;20121;-66
2023/03/23 03:02:10;;;;;;;14.73;6.85;;;;;;;;;;4959342;28;20494;-66
2023/03/23 03:04:40;;;;;;;12.63;7.68;;;;;;;;;;4959198;28;20129;-65
2023/03/23 03:07:15;;;;;;;12.00;5.05;;;;;;;;;;4957753;28;20046;-66
2023/03/23 03:09:49;;;;;;;12.45;6.00;;;;;;;;;;4958800;28;20046;-66
2023/03/23 03:12:22;;;;;;;10.30;5.75;;;;;;;;;;4958646;28;20051;-66
2023/03/23 03:14:53;;;;;;;11.07;5.07;;;;;;;;;;4941345;28;20129;-66
2023/03/23 03:17:24;;;;;;;9.18;5.65;;;;;;;;;;4940832;28;20117;-66
2023/03/23 03:19:53;;;;;;;13.68;5.43;;;;;;;;;;4944800;28;20042;-66
2023/03/23 03:22:20;;;;;;;14.40;5.55;;;;;;;;;;4942914;28;20038;-66
2023/03/23 03:24:47;;;;;;;10.70;5.07;;;;;;;;;;4962049;28;20494;-65
2023/03/23 03:27:17;;;;;;;11.40;5.70;;;;;;;;;;4960652;28;20054;-66
2023/03/23 03:29:45;;;;;;;15.93;5.53;;;;;;;;;;4962341;28;20046;-65
2023/03/23 03:32:14;;;;;;;13.25;4.68;;;;;;;;;;4963798;28;20478;-65
2023/03/23 03:34:41;;;;;;;12.95;5.47;;;;;;;;;;4961020;28;20049;-66
2023/03/23 03:37:07;;;;;;;15.18;5.95;;;;;;;;;;4943961;28;20193;-66
2023/03/23 03:39:36;;;;;;;16.20;5.20;;;;;;;;;;4962379;28;20054;-66
2023/03/23 03:42:02;;;;;;;14.70;6.90;;;;;;;;;;4960782;28;20058;-66
2023/03/23 03:44:28;;;;;;;12.75;7.00;;;;;;;;;;4954743;28;20066;-66
2023/03/23 03:46:55;;;;;;;16.75;7.40;;;;;;;;;;4964381;28;20034;-66
2023/03/23 03:49:22;;;;;;;17.88;8.43;;;;;;;;;;4962790;28;20050;-66
2023/03/23 03:51:48;;;;;;;13.45;7.05;;;;;;;;;;4947612;28;20046;-66
2023/03/23 03:54:15;;;;;;;23.50;8.50;;;;;;;;;;4944132;28;20047;-66
2023/03/23 03:56:42;;;;;;;20.05;8.80;;;;;;;;;;4940897;28;20148;-66
2023/03/23 03:59:09;;;;;;;17.75;7.85;;;;;;;;;;4958378;28;20097;-66
2023/03/23 04:01:35;;;;;;;17.83;8.52;;;;;;;;;;4961490;28;20059;-66
2023/03/23 04:04:01;;;;;;;17.17;6.93;;;;;;;;;;4957418;28;20050;-66
2023/03/23 04:06:28;;;;;;;19.30;6.03;;;;;;;;;;4957716;28;20473;-65
2023/03/23 04:08:55;;;;;;;17.08;6.22;;;;;;;;;;4956941;28;20053;-66
2023/03/23 04:11:22;;;;;;;14.77;5.72;;;;;;;;;;4958190;28;20070;-66
2023/03/23 04:13:48;;;;;;;18.60;5.43;;;;;;;;;;4957771;28;20495;-66
2023/03/23 04:16:16;;;;;;;17.45;6.05;;;;;;;;;;4958042;28;20493;-66
2023/03/23 04:18:42;;;;;;;20.08;7.10;;;;;;;;;;4957206;28;20097;-66
2023/03/23 04:21:09;;;;;;;16.05;7.05;;;;;;;;;;4941241;28;20043;-66
2023/03/23 04:23:35;;;;;;;15.43;5.18;;;;;;;;;;4958672;28;20057;-66
2023/03/23 04:26:03;;;;;;;15.75;4.72;;;;;;;;;;4939616;28;20050;-66
2023/03/23 04:28:29;;;;;;;18.45;5.43;;;;;;;;;;4956884;28;20058;-66
2023/03/23 04:30:55;;;;;;;16.50;3.72;;;;;;;;;;4957384;28;20074;-66
2023/03/23 04:33:24;;;;;;;14.88;3.78;;;;;;;;;;4956073;28;20077;-66
2023/03/23 04:35:51;;;;;;;12.95;3.55;;;;;;;;;;4957754;28;20399;-64
2023/03/23 04:38:24;;;;;;;16.08;3.67;;;;;;;;;;4958526;28;20055;-65
2023/03/23 04:40:51;;;;;;;12.38;2.97;;;;;;;;;;4953571;28;20130;-65
2023/03/23 04:43:21;;;;;;;13.27;3.20;;;;;;;;;;4940436;28;20149;-65
2023/03/23 04:45:48;;;;;;;20.67;3.85;;;;;;;;;;4939532;28;20500;-65
2023/03/23 04:48:15;;;;;;;23.30;4.70;;;;;;;;;;4940271;28;20051;-65
2023/03/23 04:50:41;;;;;;;23.85;4.10;;;;;;;;;;4958676;28;20039;-65
2023/03/23 04:53:07;;;;;;;23.55;3.95;;;;;;;;;;4941191;28;20050;-64
2023/03/23 04:55:40;;;;;;;25.50;4.45;;;;;;;;;;4958747;28;20439;-65
2023/03/23 04:58:07;;;;;;;31.33;5.00;;;;;;;;;;4956748;28;20046;-65
2023/03/23 05:00:34;;;;;;;23.42;4.60;;;;;;;;;;4939615;28;20117;-65
2023/03/23 05:03:00;;;;;;;17.23;4.03;;;;;;;;;;4959887;28;20133;-65
2023/03/23 05:05:29;;;;;;;20.45;3.97;;;;;;;;;;4957586;28;20042;-65
2023/03/23 05:07:55;;;;;;;20.60;4.60;;;;;;;;;;4956760;28;20153;-65
2023/03/23 05:10:22;;;;;;;23.85;4.78;;;;;;;;;;4958365;28;20049;-65
2023/03/23 05:12:48;;;;;;;19.80;4.68;;;;;;;;;;4939483;28;20054;-65
2023/03/23 05:15:15;;;;;;;24.40;5.07;;;;;;;;;;4957657;28;20046;-65
2023/03/23 05:17:43;;;;;;;31.67;4.30;;;;;;;;;;4955841;28;20054;-65
2023/03/23 05:20:11;;;;;;;32.40;5.72;;;;;;;;;;4960331;28;20082;-65
2023/03/23 05:22:38;;;;;;;27.67;5.45;;;;;;;;;;4960777;28;20050;-66
2023/03/23 05:25:05;;;;;;;25.83;4.45;;;;;;;;;;4940631;28;20050;-65
2023/03/23 05:27:32;;;;;;;33.13;5.63;;;;;;;;;;4953898;28;20042;-66
2023/03/23 05:30:00;;;;;;;30.85;4.80;;;;;;;;;;4935975;28;20410;-65
2023/03/23 05:32:28;;;;;;;35.08;6.53;;;;;;;;;;4957739;28;20298;-65
2023/03/23 05:34:56;;;;;;;26.38;5.20;;;;;;;;;;4958917;28;20132;-66
2023/03/23 05:37:22;;;;;;;35.40;5.60;;;;;;;;;;4960663;28;20139;-65
2023/03/23 05:39:48;;;;;;;21.85;3.70;;;;;;;;;;4958728;28;20042;-65
2023/03/23 05:42:14;;;;;;;33.72;5.60;;;;;;;;;;4924467;28;20100;-66
2023/03/23 05:44:41;;;;;;;35.97;6.72;;;;;;;;;;4962258;28;20049;-66
2023/03/23 05:47:07;;;;;;;30.58;6.00;;;;;;;;;;4962326;28;20046;-66
2023/03/23 05:49:36;;;;;;;21.60;4.20;;;;;;;;;;4959407;28;20400;-66
2023/03/23 05:52:02;;;;;;;34.47;5.85;;;;;;;;;;4960941;28;20150;-66
2023/03/23 05:54:28;;;;;;;29.17;6.28;;;;;;;;;;4961565;28;20212;-66
2023/03/23 05:56:54;;;;;;;29.20;5.47;;;;;;;;;;4960934;28;20051;-65
2023/03/23 05:59:21;;;;;;;28.35;5.57;;;;;;;;;;4962505;28;20110;-65
2023/03/23 06:01:47;;;;;;;25.55;4.32;;;;;;;;;;4959242;28;20394;-65
2023/03/23 06:04:13;;;;;;;14.63;2.50;;;;;;;;;;4961941;28;20066;-66
2023/03/23 06:06:41;;;;;;;13.30;3.15;;;;;;;;;;4962939;28;20126;-66
2023/03/23 06:09:07;;;;;;;18.80;3.47;;;;;;;;;;4960223;28;20814;-66
2023/03/23 06:11:34;;;;;;;10.80;2.00;;;;;;;;;;4962048;28;20454;-66
2023/03/23 06:14:00;;;;;;;10.82;1.85;;;;;;;;;;4960168;28;20046;-66
2023/03/23 06:16:27;;;;;;;14.25;3.00;;;;;;;;;;4959745;28;20545;-66
2023/03/23 06:18:53;;;;;;;18.17;3.30;;;;;;;;;;4965673;28;20372;-65
2023/03/23 06:21:19;;;;;;;15.50;2.35;;;;;;;;;;4964690;28;20093;-66
2023/03/23 06:23:47;;;;;;;15.27;3.05;;;;;;;;;;4940293;28;20061;-65
2023/03/23 06:26:16;;;;;;;12.05;2.72;;;;;;;;;;4964056;28;20113;-65
2023/03/23 06:28:43;;;;;;;11.80;2.40;;;;;;;;;;4944904;28;20058;-65
2023/03/23 06:31:09;;;;;;;17.38;2.50;;;;;;;;;;4962318;28;20142;-66
2023/03/23 06:33:36;;;;;;;16.77;2.90;;;;;;;;;;4966238;28;20371;-65
2023/03/23 06:36:02;;;;;;;17.80;3.55;;;;;;;;;;4964607;28;20112;-66
2023/03/23 06:38:29;;;;;;;17.27;3.45;;;;;;;;;;4947223;28;20050;-66
2023/03/23 06:40:56;;;;;;;11.10;2.58;;;;;;;;;;4964749;28;20045;-66
2023/03/23 06:43:23;;;;;;;14.82;2.25;;;;;;;;;;4946662;28;20061;-66
2023/03/23 06:45:50;;;;;;;16.90;3.90;;;;;;;;;;4961069;28;20034;-66
2023/03/23 06:48:16;;;;;;;17.13;3.30;;;;;;;;;;4964960;28;20119;-66
2023/03/23 06:50:44;;;;;;;20.10;4.20;;;;;;;;;;4949364;28;20057;-67
2023/03/23 06:53:11;;;;;;;31.08;4.22;;;;;;;;;;4966613;28;21196;-67
2023/03/23 06:55:38;;;;;;;19.95;3.38;;;;;;;;;;4949553;28;20050;-67
2023/03/23 06:58:05;;;;;;;24.60;4.63;;;;;;;;;;4963409;28;20043;-67
2023/03/23 07:00:32;;;;;;;27.70;4.68;;;;;;;;;;4964564;28;20065;-67
2023/03/23 07:02:58;;;;;;;24.33;5.05;;;;;;;;;;4963955;28;20051;-67
2023/03/23 07:05:25;;;;;;;28.58;5.25;;;;;;;;;;4963809;28;20491;-67
2023/03/23 07:07:51;;;;;;;32.90;5.38;;;;;;;;;;4964269;28;20496;-68
2023/03/23 07:10:17;;;;;;;34.47;5.50;;;;;;;;;;4947005;28;20126;-67
2023/03/23 07:12:43;;;;;;;33.58;5.90;;;;;;;;;;4963426;28;20047;-67
2023/03/23 07:15:10;;;;;;;32.63;6.07;;;;;;;;;;4947502;28;20039;-66
2023/03/23 07:17:37;;;;;;;37.25;6.72;;;;;;;;;;4948727;28;20046;-66
2023/03/23 07:20:04;;;;;;;52.97;8.23;;;;;;;;;;4966255;28;21513;-66
2023/03/23 07:22:31;;;;;;;36.67;6.47;;;;;;;;;;4946979;28;20133;-66
2023/03/23 07:24:57;;;;;;;40.08;6.72;;;;;;;;;;4963295;28;20166;-66
2023/03/23 07:27:24;;;;;;;39.22;7.57;;;;;;;;;;4964937;28;20051;-66
2023/03/23 07:29:50;;;;;;;37.70;6.93;;;;;;;;;;4945603;28;20043;-66
2023/03/23 07:32:16;;;;;;;36.28;7.28;;;;;;;;;;4962477;28;20436;-66
2023/03/23 07:34:42;;;;;;;39.67;7.78;;;;;;;;;;4944778;28;20562;-65
2023/03/23 07:37:09;;;;;;;54.85;8.60;;;;;;;;;;4964196;28;20043;-66
2023/03/23 07:39:35;;;;;;;40.70;7.80;;;;;;;;;;4963679;28;20093;-66
2023/03/23 07:42:02;;;;;;;36.50;6.00;;;;;;;;;;4942699;28;20119;-66
2023/03/23 07:44:28;;;;;;;41.67;7.75;;;;;;;;;;4962212;28;21335;-66
2023/03/23 07:46:54;;;;;;;34.25;7.20;;;;;;;;;;4963132;28;20498;-66
2023/03/23 07:49:20;;;;;;;30.67;7.10;;;;;;;;;;4963155;28;20473;-66
2023/03/23 07:51:47;;;;;;;32.97;5.97;;;;;;;;;;4963897;28;20055;-66
2023/03/23 07:54:14;;;;;;;35.30;7.00;;;;;;;;;;4963139;28;20046;-66
2023/03/23 07:56:41;;;;;;;34.15;6.97;;;;;;;;;;4963660;28;20042;-66
2023/03/23 07:59:07;;;;;;;38.00;7.03;;;;;;;;;;4945334;28;20047;-67
2023/03/23 08:01:34;;;;;;;39.90;6.82;;;;;;;;;;4961652;28;20043;-65
2023/03/23 08:04:00;;;;;;;39.45;8.02;;;;;;;;;;4964599;28;20091;-67
2023/03/23 08:06:27;;;;;;;48.08;7.03;;;;;;;;;;4949473;28;20038;-67
2023/03/23 08:08:53;;;;;;;36.42;8.13;;;;;;;;;;4963368;28;20043;-68
2023/03/23 08:11:20;;;;;;;38.45;7.22;;;;;;;;;;4963156;28;20137;-67
2023/03/23 08:13:46;;;;;;;34.55;6.90;;;;;;;;;;4948908;28;20047;-67
2023/03/23 08:16:13;;;;;;;35.15;6.93;;;;;;;;;;4960185;28;20089;-67
2023/03/23 08:18:39;;;;;;;38.83;6.55;;;;;;;;;;4960111;28;20055;-67
2023/03/23 08:21:08;;;;;;;36.65;6.57;;;;;;;;;;4964079;28;20513;-67
2023/03/23 08:23:35;;;;;;;28.80;6.05;;;;;;;;;;4963640;28;20150;-67
2023/03/23 08:26:01;;;;;;;39.40;8.23;;;;;;;;;;4963312;28;20043;-67
2023/03/23 08:28:27;;;;;;;38.30;8.23;;;;;;;;;;4947114;28;20034;-67
2023/03/23 08:30:54;;;;;;;35.03;7.05;;;;;;;;;;4953182;28;20061;-67
2023/03/23 08:33:21;;;;;;;33.63;6.47;;;;;;;;;;4961211;28;20046;-67
2023/03/23 08:35:55;;;;;;;32.65;6.65;;;;;;;;;;4945185;28;20141;-67
2023/03/23 08:38:21;;;;;;;36.35;6.75;;;;;;;;;;4960970;28;20077;-66
2023/03/23 08:40:48;;;;;;;37.63;5.85;;;;;;;;;;4961449;28;20058;-66
2023/03/23 08:43:15;;;;;;;35.05;6.60;;;;;;;;;;4959150;28;20410;-67
2023/03/23 08:45:41;;;;;;;34.25;5.80;;;;;;;;;;4960031;28;20039;-67
2023/03/23 08:48:07;;;;;;;35.97;6.68;;;;;;;;;;4960000;28;20106;-67
2023/03/23 08:50:34;;;;;;;44.72;7.00;;;;;;;;;;4962245;28;20038;-67
2023/03/23 08:53:00;;;;;;;29.42;5.88;;;;;;;;;;4963071;28;20051;-67
2023/03/23 08:55:27;;;;;;;30.42;5.47;;;;;;;;;;4962263;28;20050;-67
2023/03/23 08:57:53;;;;;;;33.40;7.65;;;;;;;;;;4959773;28;20058;-66
2023/03/23 09:00:22;;;;;;;34.00;5.60;;;;;;;;;;4963152;28;20502;-67
2023/03/23 09:02:50;;;;;;;31.08;6.10;;;;;;;;;;4960081;28;20125;-68
2023/03/23 09:05:18;;;;;;;37.78;7.15;;;;;;;;;;4963636;28;20055;-67
2023/03/23 09:07:45;;;;;;;35.25;5.95;;;;;;;;;;4963324;28;21144;-66
2023/03/23 09:10:13;;;;;;;32.33;6.85;;;;;;;;;;4960289;28;20090;-66
2023/03/23 09:12:39;;;;;;;34.03;6.63;;;;;;;;;;4959944;28;20061;-67
2023/03/23 09:15:07;;;;;;;42.72;6.75;;;;;;;;;;4962434;28;20458;-67
2023/03/23 09:17:35;;;;;;;36.72;6.60;;;;;;;;;;4962015;28;20057;-66
2023/03/23 09:20:02;;;;;;;32.10;5.50;;;;;;;;;;4963172;28;20085;-67
2023/03/23 09:22:28;;;;;;;34.53;6.53;;;;;;;;;;4961192;28;20062;-67
2023/03/23 09:24:55;;;;;;;39.22;7.72;;;;;;;;;;4964134;28;21127;-66
2023/03/23 09:27:21;;;;;;;39.67;6.55;;;;;;;;;;4961840;28;20055;-66
2023/03/23 09:29:48;;;;;;;34.78;6.70;;;;;;;;;;4956999;28;20057;-67
2023/03/23 09:32:15;;;;;;;33.47;6.30;;;;;;;;;;4961118;28;20038;-67
2023/03/23 09:34:41;;;;;;;38.67;7.40;;;;;;;;;;4943367;28;20066;-66
2023/03/23 09:37:08;;;;;;;36.15;7.70;;;;;;;;;;4962099;28;20054;-66
2023/03/23 09:39:34;;;;;;;39.05;7.65;;;;;;;;;;4959874;28;20085;-66
2023/03/23 09:42:05;;;;;;;40.10;6.53;;;;;;;;;;4961095;28;20394;-66
2023/03/23 09:44:40;;;;;;;29.88;6.07;;;;;;;;;;4944199;28;20058;-67
2023/03/23 09:47:10;;;;;;;33.80;7.45;;;;;;;;;;4959000;28;21083;-67
2023/03/23 09:49:38;;;;;;;34.53;6.63;;;;;;;;;;4963208;28;20034;-67
2023/03/23 09:52:08;;;;;;;38.60;6.55;;;;;;;;;;4961308;28;20050;-66
2023/03/23 09:54:37;;;;;;;31.08;6.10;;;;;;;;;;4941906;28;20078;-66
2023/03/23 09:57:03;;;;;;;24.15;5.35;;;;;;;;;;4963682;28;20130;-66
2023/03/23 09:59:32;;;;;;;36.92;5.68;;;;;;;;;;4947470;28;20058;-66
2023/03/23 10:02:04;;;;;;;24.35;5.15;;;;;;;;;;4958405;28;20058;-64
2023/03/23 10:04:40;;;;;;;28.40;6.32;;;;;;;;;;4942823;28;20054;-66
2023/03/23 10:07:11;;;;;;;27.13;6.28;;;;;;;;;;4960665;28;20047;-66
2023/03/23 10:09:37;;;;;;;35.17;6.43;;;;;;;;;;4942367;28;20046;-66
2023/03/23 10:12:03;;;;;;;32.83;6.88;;;;;;;;;;4945083;28;20178;-66
2023/03/23 10:14:35;;;;;;;24.90;5.57;;;;;;;;;;4960710;28;20050;-66
2023/03/23 10:17:05;;;;;;;32.28;6.68;;;;;;;;;;4942684;28;20043;-65
2023/03/23 10:19:41;;;;;;;28.80;5.28;;;;;;;;;;4960230;28;20386;-66
2023/03/23 10:22:11;;;;;;;24.15;5.57;;;;;;;;;;4960195;28;20057;-66
2023/03/23 10:24:52;;;;;;;33.63;6.80;;;;;;;;;;4943644;28;20050;-66
2023/03/23 10:27:23;;;;;;;28.52;6.68;;;;;;;;;;4962889;28;20450;-66
2023/03/23 10:29:54;;;;;;;30.08;5.68;;;;;;;;;;4960871;28;20571;-66
2023/03/23 10:32:37;;;;;;;37.40;7.85;;;;;;;;;;4961044;28;20039;-66
2023/03/23 10:35:05;;;;;;;30.02;5.70;;;;;;;;;;4959060;28;20221;-66
2023/03/23 10:37:33;;;;;;;33.55;8.35;;;;;;;;;;4952725;28;20129;-66
2023/03/23 10:40:00;;;;;;;22.70;5.80;;;;;;;;;;4961559;28;20042;-66
2023/03/23 10:42:34;;;;;;;33.30;6.45;;;;;;;;;;4960110;28;20066;-66
2023/03/23 10:45:01;;;;;;;27.48;4.97;;;;;;;;;;4958227;28;20103;-66
2023/03/23 10:47:28;;;;;;;30.35;5.70;;;;;;;;;;4958099;28;20133;-66
2023/03/23 10:49:58;;;;;;;27.48;5.53;;;;;;;;;;4944068;28;20147;-66
2023/03/23 10:52:31;;;;;;;32.75;6.00;;;;;;;;;;4943737;28;20054;-66
2023/03/23 10:55:03;;;;;;;27.48;4.43;;;;;;;;;;4961118;28;20149;-66
2023/03/23 10:57:31;;;;;;;34.25;5.55;;;;;;;;;;4965244;28;20054;-66
2023/03/23 11:00:06;;;;;;;26.08;5.80;;;;;;;;;;4966245;28;20050;-66
2023/03/23 11:02:38;;;;;;;31.05;5.50;;;;;;;;;;4962945;28;20117;-66
2023/03/23 11:05:07;;;;;;;26.15;5.13;;;;;;;;;;4954353;28;20050;-66
2023/03/23 11:07:34;;;;;;;19.95;4.53;;;;;;;;;;4940473;28;20386;-66
2023/03/23 11:10:08;;;;;;;24.88;4.85;;;;;;;;;;4962486;28;20051;-66
2023/03/23 11:12:35;;;;;;;21.17;4.07;;;;;;;;;;4963434;28;20263;-66
2023/03/23 11:15:17;;;;;;;24.95;4.93;;;;;;;;;;4962972;28;21599;-66
2023/03/23 11:17:43;;;;;;;26.27;6.20;;;;;;;;;;4943645;28;20486;-66
2023/03/23 11:20:11;;;;;;;26.35;4.82;;;;;;;;;;4960633;28;20043;-66
2023/03/23 11:22:38;;;;;;;24.50;4.93;;;;;;;;;;4960947;28;20113;-67
2023/03/23 11:25:06;;;;;;;23.58;5.78;;;;;;;;;;4960281;28;20042;-67
2023/03/23 11:27:33;;;;;;;27.60;6.10;;;;;;;;;;4943968;28;20050;-67
2023/03/23 11:30:10;;;;;;;20.08;4.85;;;;;;;;;;4967585;28;20514;-66
2023/03/23 11:32:37;;;;;;;18.90;4.35;;;;;;;;;;4964961;28;20494;-67
2023/03/23 11:35:05;;;;;;;25.38;5.25;;;;;;;;;;4964816;28;20102;-67
2023/03/23 11:37:42;;;;;;;23.23;5.63;;;;;;;;;;4966069;28;20049;-67
2023/03/23 11:40:12;;;;;;;20.60;3.72;;;;;;;;;;4961017;28;20089;-64
2023/03/23 11:42:43;;;;;;;22.73;4.40;;;;;;;;;;4966138;28;20429;-66
2023/03/23 11:45:18;;;;;;;19.83;4.13;;;;;;;;;;4966378;28;20103;-67
2023/03/23 11:47:55;;;;;;;18.15;3.75;;;;;;;;;;4965865;28;20105;-67
2023/03/23 11:50:24;;;;;;;26.95;5.03;;;;;;;;;;4949592;28;20115;-74
2023/03/23 11:52:56;;;;;;;20.95;4.80;;;;;;;;;;4946032;28;20509;-75
2023/03/23 11:55:27;;;;;;;27.98;4.72;;;;;;;;;;4944863;28;20058;-82
2023/03/23 11:57:54;;;;;;;21.30;4.13;;;;;;;;;;4944694;28;20046;-77
2023/03/23 12:00:22;;;;;;;26.20;5.90;;;;;;;;;;4943374;28;20038;-81
2023/03/23 12:02:49;;;;;;;18.73;4.47;;;;;;;;;;4961568;28;20491;-83
2023/03/23 12:05:22;;;;;;;20.17;5.18;;;;;;;;;;4942546;28;20045;-75
2023/03/23 12:08:00;;;;;;;19.80;4.60;;;;;;;;;;4959197;28;20101;-77
2023/03/23 12:10:29;;;;;;;22.38;4.15;;;;;;;;;;4942597;28;20455;-75
2023/03/23 12:13:14;;;;;;;22.23;4.80;;;;;;;;;;4960204;28;20046;-75
2023/03/23 12:15:52;;;;;;;22.33;5.05;;;;;;;;;;4957575;28;20043;-68
2023/03/23 12:18:38;;;;;;;20.40;4.25;;;;;;;;;;4958805;28;20379;-67
2023/03/23 12:21:15;;;;;;;25.55;5.80;;;;;;;;;;4958594;28;20383;-67
2023/03/23 12:23:50;;;;;;;20.45;4.43;;;;;;;;;;4959815;28;20379;-66
2023/03/23 12:26:21;;;;;;;18.92;4.18;;;;;;;;;;4963303;28;20471;-67
2023/03/23 12:29:06;;;;;;;17.75;4.65;;;;;;;;;;4944572;28;20781;-66
2023/03/23 12:31:32;;;;;;;25.77;5.07;;;;;;;;;;4964718;28;20070;-69
2023/03/23 12:33:58;;;;;;;15.80;3.88;;;;;;;;;;4948675;28;20042;-69
2023/03/23 12:36:39;;;;;;;24.50;5.20;;;;;;;;;;4963794;28;20093;-69
2023/03/23 12:39:12;;;;;;;19.70;5.10;;;;;;;;;;4967808;28;20701;-68
2023/03/23 12:41:51;;;;;;;22.65;5.00;;;;;;;;;;4963468;28;20058;-69
2023/03/23 12:44:18;;;;;;;21.80;4.75;;;;;;;;;;4962247;28;20047;-69
2023/03/23 12:47:00;;;;;;;21.80;4.60;;;;;;;;;;4964608;28;20686;-68
2023/03/23 12:49:41;;;;;;;21.80;4.15;;;;;;;;;;4963262;28;20057;-66
2023/03/23 12:52:13;;;;;;;18.95;4.55;;;;;;;;;;4960056;28;20039;-67
2023/03/23 12:54:45;;;;;;;33.00;6.00;;;;;;;;;;4961951;28;20074;-68
2023/03/23 12:57:15;;;;;;;19.65;4.60;;;;;;;;;;4962695;28;20134;-66
2023/03/23 12:59:46;;;;;;;24.27;6.13;;;;;;;;;;4964008;28;20097;-67
2023/03/23 13:02:19;;;;;;;23.10;4.47;;;;;;;;;;4961491;28;20057;-66
2023/03/23 13:04:48;;;;;;;21.20;5.45;;;;;;;;;;4958246;28;20042;-67
2023/03/23 13:07:18;;;;;;;15.63;3.58;;;;;;;;;;4948132;28;20074;-68
2023/03/23 13:09:58;;;;;;;23.40;5.63;;;;;;;;;;4963593;28;20595;-67
2023/03/23 13:12:25;;;;;;;19.98;3.83;;;;;;;;;;4959677;28;20047;-67
2023/03/23 13:15:15;;;;;;;23.70;4.38;;;;;;;;;;4962447;28;20490;-66
2023/03/23 13:17:49;;;;;;;20.67;4.15;;;;;;;;;;4959913;28;20039;-66
2023/03/23 13:20:16;;;;;;;;;;;;;;;;;;4962888;28;20051;-66
2023/03/23 13:22:55;;;;;;;27.23;5.40;;;;;;;;;;4964379;28;19922;-65
2023/03/23 13:25:33;;;;;;;19.00;4.20;;;;;;;;;;4963645;28;20038;-66
2023/03/23 13:28:00;;;;;;;21.80;4.22;;;;;;;;;;4957661;28;20098;-65
2023/03/23 13:30:28;;;;;;;26.38;5.43;;;;;;;;;;4959792;28;20378;-65
2023/03/23 13:33:02;;;;;;;26.85;4.47;;;;;;;;;;4959625;28;20061;-65
2023/03/23 13:35:34;;;;;;;30.48;5.40;;;;;;;;;;4962938;28;20055;-65
2023/03/23 13:38:00;;;;;;;22.50;4.30;;;;;;;;;;4963976;28;20078;-66
2023/03/23 13:40:28;;;;;;;20.38;4.75;;;;;;;;;;4961954;28;20038;-66
2023/03/23 13:42:56;;;;;;;24.95;4.70;;;;;;;;;;4942602;28;20125;-66
2023/03/23 13:45:38;;;;;;;25.30;5.32;;;;;;;;;;4959181;28;20110;-65
2023/03/23 13:48:18;;;;;;;19.33;3.90;;;;;;;;;;4965883;28;20045;-66
2023/03/23 13:50:50;;;;;;;17.85;4.30;;;;;;;;;;4957394;28;20451;-66
2023/03/23 13:53:23;;;;;;;29.55;5.78;;;;;;;;;;4958287;28;20046;-66
2023/03/23 13:55:51;;;;;;;22.90;5.50;;;;;;;;;;4960082;28;20126;-66
2023/03/23 13:58:25;;;;;;;23.77;5.22;;;;;;;;;;4958182;28;20050;-66
2023/03/23 14:01:02;;;;;;;17.65;4.10;;;;;;;;;;4938317;28;20043;-65
2023/03/23 14:03:33;;;;;;;22.33;4.60;;;;;;;;;;4958191;28;20050;-65
2023/03/23 14:05:59;;;;;;;22.65;4.28;;;;;;;;;;4959764;28;20082;-66
2023/03/23 14:08:28;;;;;;;24.00;4.05;;;;;;;;;;4959883;28;20478;-66
2023/03/23 14:10:57;;;;;;;21.17;4.88;;;;;;;;;;4959109;28;20442;-66
2023/03/23 14:13:29;;;;;;;25.23;5.15;;;;;;;;;;4961181;28;20129;-66
2023/03/23 14:15:59;;;;;;;16.02;3.72;;;;;;;;;;4939371;28;20058;-66
2023/03/23 14:18:32;;;;;;;18.77;4.07;;;;;;;;;;4927219;28;20049;-67
2023/03/23 14:20:59;;;;;;;22.38;3.78;;;;;;;;;;4940564;28;20066;-66
2023/03/23 14:23:25;;;;;;;20.70;5.15;;;;;;;;;;4959624;28;20053;-65
2023/03/23 14:26:05;;;;;;;16.73;4.35;;;;;;;;;;4959441;28;20097;-65
2023/03/23 14:28:32;;;;;;;19.30;4.25;;;;;;;;;;4956041;28;20040;-66
2023/03/23 14:30:59;;;;;;;18.30;3.80;;;;;;;;;;4959688;28;20109;-65
2023/03/23 14:33:27;;;;;;;20.23;4.38;;;;;;;;;;4942371;28;20047;-64
2023/03/23 14:35:53;;;;;;;16.63;3.67;;;;;;;;;;4958910;28;20495;-75
2023/03/23 14:38:24;;;;;;;17.00;4.05;;;;;;;;;;4928055;28;20565;-66